createdAt,value
2023-01-26T00:00:20.058Z,9.80
2023-01-26T00:02:46.747Z,10.45
2023-01-26T00:05:13.578Z,10.38
2023-01-26T00:07:45.152Z,10.05
2023-01-26T00:10:12.632Z,8.65
2023-01-26T00:12:39.655Z,9.30
2023-01-26T00:15:07.009Z,9.75
2023-01-26T00:17:33.795Z,8.77
2023-01-26T00:20:00.675Z,10.35
2023-01-26T00:22:28.111Z,10.23
2023-01-26T00:24:54.838Z,9.75
2023-01-26T00:27:21.706Z,9.57
2023-01-26T00:29:48.417Z,9.73
2023-01-26T00:32:15.120Z,8.82
2023-01-26T00:34:41.763Z,9.68
2023-01-26T00:37:08.623Z,11.52
2023-01-26T00:39:35.373Z,10.00
2023-01-26T00:42:10.018Z,10.70
2023-01-26T00:44:38.614Z,10.23
2023-01-26T00:47:07.112Z,10.38
2023-01-26T00:49:34.657Z,9.63
2023-01-26T00:52:02.136Z,9.10
2023-01-26T00:54:29.089Z,9.27
2023-01-26T00:56:56.003Z,9.13
2023-01-26T00:59:23.177Z,8.68
2023-01-26T01:01:50.172Z,8.27
2023-01-26T01:04:16.958Z,8.75
2023-01-26T01:06:43.807Z,8.15
2023-01-26T01:09:10.663Z,8.32
2023-01-26T01:11:37.381Z,8.18
2023-01-26T01:14:04.305Z,8.90
2023-01-26T01:16:31.023Z,7.60
2023-01-26T01:18:57.865Z,8.23
2023-01-26T01:21:25.874Z,7.97
2023-01-26T01:23:53.096Z,7.68
2023-01-26T01:26:19.850Z,7.70
2023-01-26T01:28:46.707Z,8.15
2023-01-26T01:31:15.694Z,7.55
2023-01-26T01:33:43.009Z,7.75
2023-01-26T01:36:15.777Z,6.55
2023-01-26T01:38:44.883Z,7.25
2023-01-26T01:41:12.741Z,7.18
2023-01-26T01:43:40.774Z,6.13
2023-01-26T01:46:51.394Z,6.55
2023-01-26T01:49:24.120Z,6.07
2023-01-26T01:52:03.814Z,7.28
2023-01-26T01:54:39.139Z,7.90
2023-01-26T01:57:15.425Z,7.88
2023-01-26T01:59:54.464Z,6.75
2023-01-26T02:02:21.210Z,7.55
2023-01-26T02:04:47.969Z,7.60
2023-01-26T02:07:14.975Z,8.32
2023-01-26T02:10:00.931Z,8.05
2023-01-26T02:12:30.887Z,7.78
2023-01-26T02:14:58.080Z,7.40
2023-01-26T02:17:25.107Z,7.75
2023-01-26T02:20:03.025Z,7.57
2023-01-26T02:22:40.816Z,8.27
2023-01-26T02:25:27.663Z,6.93
2023-01-26T02:27:54.362Z,7.07
2023-01-26T02:30:22.851Z,7.70
2023-01-26T02:32:49.698Z,7.18
2023-01-26T02:35:16.392Z,5.88
2023-01-26T02:37:43.032Z,6.85
2023-01-26T02:40:44.725Z,8.40
2023-01-26T02:43:11.909Z,7.03
2023-01-26T02:45:40.770Z,7.53
2023-01-26T02:48:08.187Z,7.22
2023-01-26T02:50:35.360Z,7.40
2023-01-26T02:53:02.555Z,8.07
2023-01-26T02:55:29.648Z,6.95
2023-01-26T02:58:02.130Z,7.00
2023-01-26T03:00:31.499Z,6.65
2023-01-26T03:03:00.812Z,6.32
2023-01-26T03:05:28.714Z,7.03
2023-01-26T03:07:55.780Z,6.22
2023-01-26T03:10:25.247Z,6.50
2023-01-26T03:12:52.229Z,5.93
2023-01-26T03:15:38.084Z,6.38
2023-01-26T03:18:25.967Z,6.82
2023-01-26T03:21:11.254Z,6.80
2023-01-26T03:23:56.850Z,7.70
2023-01-26T03:26:42.185Z,6.55
2023-01-26T03:29:08.949Z,7.57
2023-01-26T03:31:35.752Z,6.93
2023-01-26T03:34:03.607Z,6.97
2023-01-26T03:36:30.650Z,6.43
2023-01-26T03:38:57.426Z,6.28
2023-01-26T03:41:42.606Z,6.38
2023-01-26T03:44:28.024Z,7.38
2023-01-26T03:47:13.368Z,7.82
2023-01-26T03:49:58.667Z,6.40
2023-01-26T03:52:44.013Z,6.68
2023-01-26T03:55:29.201Z,7.43
2023-01-26T03:57:55.993Z,7.22
2023-01-26T04:00:22.840Z,7.75
2023-01-26T04:03:09.100Z,7.38
2023-01-26T04:05:54.379Z,7.78
2023-01-26T04:08:24.087Z,7.40
2023-01-26T04:10:54.274Z,7.00
2023-01-26T04:13:41.936Z,7.95
2023-01-26T04:16:28.769Z,6.97
2023-01-26T04:19:14.707Z,6.70
2023-01-26T04:21:41.398Z,7.53
2023-01-26T04:24:09.771Z,8.00
2023-01-26T04:26:37.221Z,7.47
2023-01-26T04:29:07.033Z,7.22
2023-01-26T04:31:34.394Z,7.28
2023-01-26T04:34:02.710Z,6.95
2023-01-26T04:36:29.478Z,7.30
2023-01-26T04:38:56.322Z,7.28
2023-01-26T04:41:23.463Z,8.65
2023-01-26T04:43:50.625Z,7.32
2023-01-26T04:46:17.416Z,7.13
2023-01-26T04:48:44.123Z,7.03
2023-01-26T04:51:20.089Z,7.18
2023-01-26T04:53:48.330Z,7.65
2023-01-26T04:56:25.867Z,6.97
2023-01-26T04:58:54.015Z,8.38
2023-01-26T05:01:20.870Z,7.65
2023-01-26T05:03:48.039Z,7.45
2023-01-26T05:06:15.064Z,7.57
2023-01-26T05:08:42.179Z,7.40
2023-01-26T05:11:08.992Z,7.80
2023-01-26T05:13:36.013Z,7.10
2023-01-26T05:16:06.246Z,7.32
2023-01-26T05:18:32.884Z,6.97
2023-01-26T05:20:59.734Z,6.50
2023-01-26T05:23:26.532Z,7.90
2023-01-26T05:25:53.189Z,8.65
2023-01-26T05:28:19.892Z,7.38
2023-01-26T05:30:47.870Z,7.50
2023-01-26T05:33:15.884Z,7.38
2023-01-26T05:35:43.132Z,7.13
2023-01-26T05:38:09.973Z,6.88
2023-01-26T05:40:37.482Z,7.20
2023-01-26T05:43:04.193Z,7.68
2023-01-26T05:45:31.039Z,7.25
2023-01-26T05:47:57.747Z,7.50
2023-01-26T05:50:24.558Z,7.80
2023-01-26T05:52:51.298Z,7.03
2023-01-26T05:55:18.074Z,7.80
2023-01-26T05:57:44.788Z,7.78
2023-01-26T06:00:13.254Z,7.70
2023-01-26T06:02:40.282Z,6.90
2023-01-26T06:05:07.980Z,6.88
2023-01-26T06:07:34.968Z,7.50
2023-01-26T06:10:01.819Z,6.97
2023-01-26T06:12:31.602Z,8.27
2023-01-26T06:14:58.827Z,7.35
2023-01-26T06:17:25.668Z,6.75
2023-01-26T06:19:52.379Z,8.00
2023-01-26T06:22:19.326Z,8.32
2023-01-26T06:24:46.909Z,7.95
2023-01-26T06:27:16.172Z,7.32
2023-01-26T06:29:44.682Z,7.90
2023-01-26T06:32:12.399Z,7.07
2023-01-26T06:34:39.210Z,7.70
2023-01-26T06:37:06.224Z,7.30
2023-01-26T06:39:32.946Z,7.65
2023-01-26T06:41:59.846Z,7.18
2023-01-26T06:44:26.617Z,7.78
2023-01-26T06:46:53.478Z,8.38
2023-01-26T06:49:20.464Z,7.50
2023-01-26T06:52:04.191Z,7.60
2023-01-26T06:54:30.893Z,7.03
2023-01-26T06:56:57.762Z,7.47
2023-01-26T06:59:24.496Z,7.32
2023-01-26T07:01:51.265Z,7.93
2023-01-26T07:04:18.552Z,8.80
2023-01-26T07:06:45.485Z,7.32
2023-01-26T07:09:12.609Z,8.57
2023-01-26T07:11:39.363Z,7.32
2023-01-26T07:14:06.220Z,7.32
2023-01-26T07:16:33.978Z,7.68
2023-01-26T07:19:01.046Z,7.30
2023-01-26T07:21:28.048Z,7.63
2023-01-26T07:23:55.636Z,9.48
2023-01-26T07:26:22.428Z,7.75
2023-01-26T07:28:49.335Z,7.65
2023-01-26T07:31:16.247Z,7.50
2023-01-26T07:33:43.024Z,8.20
2023-01-26T07:36:11.048Z,7.47
2023-01-26T07:38:38.348Z,8.70
2023-01-26T07:41:07.687Z,8.88
2023-01-26T07:43:36.406Z,8.45
2023-01-26T07:46:03.393Z,8.98
2023-01-26T07:48:30.762Z,9.25
2023-01-26T07:51:03.639Z,9.18
2023-01-26T07:53:33.945Z,9.70
2023-01-26T07:56:12.019Z,9.10
2023-01-26T07:58:39.411Z,9.95
2023-01-26T08:01:13.849Z,9.65
2023-01-26T08:03:41.519Z,9.63
2023-01-26T08:06:11.800Z,9.45
2023-01-26T08:08:42.737Z,9.30
2023-01-26T08:11:10.789Z,8.95
2023-01-26T08:13:38.299Z,10.50
2023-01-26T08:16:12.452Z,10.77
2023-01-26T08:18:41.428Z,10.35
2023-01-26T08:21:09.436Z,10.90
2023-01-26T08:23:36.520Z,10.88
2023-01-26T08:26:13.230Z,10.85
2023-01-26T08:28:41.029Z,11.32
2023-01-26T08:31:14.298Z,10.23
2023-01-26T08:33:43.805Z,11.45
2023-01-26T08:36:15.683Z,10.15
2023-01-26T08:38:43.108Z,10.52
2023-01-26T08:41:10.039Z,10.55
2023-01-26T08:43:37.419Z,11.60
2023-01-26T08:46:04.776Z,10.05
2023-01-26T08:48:31.979Z,11.60
2023-01-26T08:51:00.680Z,11.65
2023-01-26T08:53:32.584Z,11.18
2023-01-26T08:56:06.711Z,11.00
2023-01-26T08:58:33.843Z,11.98
2023-01-26T09:01:04.757Z,12.30
2023-01-26T09:03:31.773Z,10.88
2023-01-26T09:06:04.427Z,11.95
2023-01-26T09:08:31.559Z,11.77
2023-01-26T09:10:58.508Z,11.02
2023-01-26T09:13:25.216Z,10.27
2023-01-26T09:15:52.291Z,11.60
2023-01-26T09:18:19.151Z,11.70
2023-01-26T09:20:46.001Z,11.70
2023-01-26T09:23:16.356Z,12.07
2023-01-26T09:25:45.319Z,11.02
2023-01-26T09:28:12.068Z,11.70
2023-01-26T09:30:38.901Z,13.80
2023-01-26T09:33:06.915Z,11.90
2023-01-26T09:35:34.793Z,12.02
2023-01-26T09:38:01.653Z,12.80
2023-01-26T09:41:02.298Z,13.15
2023-01-26T09:43:39.817Z,11.88
2023-01-26T09:46:18.145Z,12.98
2023-01-26T09:48:58.694Z,11.60
2023-01-26T09:51:25.440Z,12.50
2023-01-26T09:54:01.224Z,12.95
2023-01-26T09:56:32.502Z,12.70
2023-01-26T09:59:26.272Z,11.30
2023-01-26T10:02:00.042Z,13.40
2023-01-26T10:04:36.659Z,13.48
2023-01-26T10:07:09.714Z,13.45
2023-01-26T10:09:39.099Z,13.55
2023-01-26T10:12:47.219Z,14.60
2023-01-26T10:15:39.619Z,12.23
2023-01-26T10:18:11.962Z,11.73
2023-01-26T10:20:51.524Z,12.88
2023-01-26T10:23:25.943Z,12.13
2023-01-26T10:25:56.439Z,14.98
2023-01-26T10:28:31.261Z,12.40
2023-01-26T10:30:58.340Z,14.23
2023-01-26T10:33:33.179Z,14.07
2023-01-26T10:36:01.408Z,12.55
2023-01-26T10:38:28.598Z,12.48
2023-01-26T10:40:55.943Z,12.93
2023-01-26T10:43:24.611Z,14.05
2023-01-26T10:45:51.457Z,13.93
2023-01-26T10:48:27.248Z,13.00
2023-01-26T10:50:54.387Z,13.10
2023-01-26T10:53:28.833Z,12.35
2023-01-26T10:56:05.515Z,12.93
2023-01-26T10:58:55.122Z,12.68
2023-01-26T11:01:27.327Z,13.20
2023-01-26T11:04:12.030Z,13.05
2023-01-26T11:06:39.402Z,12.07
2023-01-26T11:09:15.302Z,14.00
2023-01-26T11:11:42.464Z,13.88
2023-01-26T11:14:16.789Z,13.23
2023-01-26T11:17:01.766Z,13.43
2023-01-26T11:20:01.712Z,12.88
2023-01-26T11:22:55.452Z,12.98
2023-01-26T11:25:40.985Z,13.23
2023-01-26T11:28:44.748Z,12.00
2023-01-26T11:34:03.169Z,12.57
2023-01-26T11:36:34.472Z,12.70
2023-01-26T11:39:27.419Z,12.48
2023-01-26T11:42:10.793Z,12.80
2023-01-26T11:45:22.014Z,11.35
2023-01-26T11:48:24.807Z,11.52
2023-01-26T11:51:19.964Z,10.80
2023-01-26T11:54:14.137Z,11.68
2023-01-26T11:56:52.424Z,10.43
2023-01-26T12:02:05.541Z,10.45
2023-01-26T12:04:38.775Z,10.25
2023-01-26T12:07:14.147Z,10.02
2023-01-26T12:09:47.920Z,10.57
2023-01-26T12:12:42.981Z,10.00
2023-01-26T12:15:29.046Z,9.88
2023-01-26T12:18:00.290Z,8.73
2023-01-26T12:20:53.904Z,10.02
2023-01-26T12:23:43.597Z,8.93
2023-01-26T12:26:16.503Z,9.05
2023-01-26T12:29:09.522Z,8.77
2023-01-26T12:31:45.966Z,8.82
2023-01-26T12:34:13.740Z,9.13
2023-01-26T12:37:03.326Z,9.48
2023-01-26T12:39:39.798Z,8.95
2023-01-26T12:42:22.365Z,8.70
2023-01-26T12:45:01.827Z,8.57
2023-01-26T12:47:37.187Z,9.50
2023-01-26T12:50:21.516Z,8.55
2023-01-26T12:52:55.779Z,10.77
2023-01-26T12:55:29.332Z,9.20
2023-01-26T12:58:02.825Z,9.13
2023-01-26T13:00:32.740Z,8.80
2023-01-26T13:03:02.398Z,8.85
2023-01-26T13:05:30.745Z,8.35
2023-01-26T13:07:57.606Z,8.07
2023-01-26T13:10:29.715Z,8.50
2023-01-26T13:13:01.788Z,7.57
2023-01-26T13:15:33.026Z,8.07
2023-01-26T13:18:04.494Z,8.07
2023-01-26T13:20:40.220Z,8.25
2023-01-26T13:23:43.383Z,8.23
2023-01-26T13:26:17.852Z,7.95
2023-01-26T13:28:46.474Z,8.68
2023-01-26T13:31:28.757Z,8.07
2023-01-26T13:33:58.215Z,7.65
2023-01-26T13:36:27.186Z,9.27
2023-01-26T13:39:11.056Z,8.80
2023-01-26T13:41:46.385Z,9.45
2023-01-26T13:44:40.336Z,9.30
2023-01-26T13:47:15.277Z,8.07
2023-01-26T13:49:43.287Z,9.10
2023-01-26T13:52:22.646Z,10.00
2023-01-26T13:54:50.885Z,9.70
2023-01-26T13:57:23.756Z,9.55
2023-01-26T14:00:01.980Z,10.50
2023-01-26T14:02:35.382Z,10.38
2023-01-26T14:05:03.297Z,9.15
2023-01-26T14:07:38.519Z,10.15
2023-01-26T14:10:06.976Z,9.70
2023-01-26T14:12:36.390Z,9.85
2023-01-26T14:15:06.645Z,10.38
2023-01-26T14:17:47.129Z,9.63
2023-01-26T14:20:33.517Z,9.68
2023-01-26T14:23:13.839Z,10.13
2023-01-26T14:25:43.519Z,9.27
2023-01-26T14:28:23.225Z,10.32
2023-01-26T14:30:58.306Z,10.18
2023-01-26T14:33:25.119Z,10.57
2023-01-26T14:36:03.291Z,9.55
2023-01-26T14:38:39.252Z,10.10
2023-01-26T14:41:15.687Z,10.13
2023-01-26T14:43:42.555Z,10.23
2023-01-26T14:46:17.446Z,10.10
2023-01-26T14:48:50.870Z,9.98
2023-01-26T14:51:21.495Z,11.07
2023-01-26T14:53:50.731Z,10.45
2023-01-26T14:56:20.314Z,10.25
2023-01-26T14:58:52.880Z,8.93
2023-01-26T15:01:24.949Z,10.20
2023-01-26T15:06:28.629Z,9.05
2023-01-26T15:08:56.788Z,10.15
2023-01-26T15:11:55.930Z,9.60
2023-01-26T15:14:33.229Z,10.02
2023-01-26T15:17:00.599Z,9.57
2023-01-26T15:19:39.858Z,9.82
2023-01-26T15:22:21.139Z,10.05
2023-01-26T15:25:07.026Z,9.30
2023-01-26T15:27:35.623Z,10.40
2023-01-26T15:30:04.514Z,9.23
2023-01-26T15:32:38.385Z,10.57
2023-01-26T15:35:20.327Z,10.43
2023-01-26T15:37:47.648Z,10.10
2023-01-26T15:40:15.551Z,11.02
2023-01-26T15:42:42.427Z,9.65
2023-01-26T15:45:25.562Z,11.15
2023-01-26T15:47:52.260Z,9.48
2023-01-26T15:50:27.774Z,9.75
2023-01-26T15:52:55.124Z,9.52
2023-01-26T15:55:26.610Z,9.82
2023-01-26T15:57:53.351Z,9.45
2023-01-26T16:00:20.445Z,10.40
2023-01-26T16:02:47.151Z,9.18
2023-01-26T16:05:18.370Z,10.05
2023-01-26T16:07:45.591Z,9.35
2023-01-26T16:10:12.389Z,9.48
2023-01-26T16:12:39.226Z,9.52
2023-01-26T16:15:29.347Z,9.60
2023-01-26T16:17:56.112Z,10.02
2023-01-26T16:20:23.160Z,9.55
2023-01-26T16:22:49.807Z,10.38
2023-01-26T16:25:22.297Z,9.13
2023-01-26T16:27:49.353Z,10.52
2023-01-26T16:30:17.171Z,9.55
2023-01-26T16:32:47.168Z,10.45
2023-01-26T16:35:20.343Z,9.38
2023-01-26T16:37:47.511Z,10.60
2023-01-26T16:40:17.470Z,9.90
2023-01-26T16:42:48.278Z,10.18
2023-01-26T16:45:26.725Z,10.57
2023-01-26T16:47:55.837Z,9.73
2023-01-26T16:50:23.838Z,8.70
2023-01-26T16:52:51.236Z,8.15
2023-01-26T16:55:19.018Z,7.75
2023-01-26T16:57:47.780Z,7.38
2023-01-26T17:00:17.569Z,6.32
2023-01-26T17:02:48.039Z,7.22
2023-01-26T17:05:17.600Z,6.55
2023-01-26T17:07:44.481Z,8.90
2023-01-26T17:10:16.583Z,7.80
2023-01-26T17:12:44.381Z,8.00
2023-01-26T17:15:12.580Z,8.55
2023-01-26T17:17:39.816Z,8.30
2023-01-26T17:20:18.357Z,8.43
2023-01-26T17:22:46.241Z,7.88
2023-01-26T17:25:16.355Z,8.32
2023-01-26T17:27:44.574Z,8.20
2023-01-26T17:30:11.899Z,7.25
2023-01-26T17:32:38.589Z,7.88
2023-01-26T17:35:05.695Z,7.50
2023-01-26T17:37:32.532Z,7.38
2023-01-26T17:39:59.538Z,7.45
2023-01-26T17:42:26.351Z,6.80
2023-01-26T17:44:53.106Z,7.97
2023-01-26T17:47:19.887Z,6.63
2023-01-26T17:49:46.720Z,6.15
2023-01-26T17:52:14.367Z,6.53
2023-01-26T17:54:41.376Z,7.00
2023-01-26T17:57:08.356Z,7.07
2023-01-26T17:59:35.117Z,6.57
2023-01-26T18:02:02.445Z,7.13
2023-01-26T18:04:31.318Z,7.28
2023-01-26T18:06:58.387Z,6.93
2023-01-26T18:09:25.511Z,7.05
2023-01-26T18:11:52.282Z,7.00
2023-01-26T18:14:19.139Z,7.13
2023-01-26T18:16:45.992Z,6.35
2023-01-26T18:19:12.871Z,6.93
2023-01-26T18:21:39.642Z,6.88
2023-01-26T18:24:06.983Z,6.30
2023-01-26T18:26:38.215Z,7.35
2023-01-26T18:29:06.191Z,7.80
2023-01-26T18:31:40.738Z,6.75
2023-01-26T18:34:08.257Z,7.07
2023-01-26T18:36:35.213Z,7.07
2023-01-26T18:39:06.449Z,7.55
2023-01-26T18:41:33.322Z,7.00
2023-01-26T18:44:01.158Z,8.05
2023-01-26T18:46:28.801Z,7.53
2023-01-26T18:49:00.700Z,6.95
2023-01-26T18:51:33.359Z,6.97
2023-01-26T18:54:00.413Z,6.80
2023-01-26T18:56:27.343Z,6.75
2023-01-26T18:58:54.363Z,6.40
2023-01-26T19:01:21.991Z,6.78
2023-01-26T19:03:54.150Z,6.28
2023-01-26T19:06:22.447Z,5.65
2023-01-26T19:08:58.380Z,6.55
2023-01-26T19:11:29.784Z,6.43
2023-01-26T19:13:57.017Z,6.05
2023-01-26T19:16:23.822Z,5.90
2023-01-26T19:18:51.877Z,6.70
2023-01-26T19:21:24.326Z,6.70
2023-01-26T19:23:53.122Z,6.22
2023-01-26T19:26:23.211Z,5.88
2023-01-26T19:28:51.039Z,6.38
2023-01-26T19:31:19.700Z,6.20
2023-01-26T19:33:51.650Z,7.35
2023-01-26T19:36:18.612Z,6.60
2023-01-26T19:38:45.558Z,6.07
2023-01-26T19:41:12.942Z,5.50
2023-01-26T19:43:39.983Z,6.63
2023-01-26T19:46:08.417Z,6.90
2023-01-26T19:48:35.436Z,6.22
2023-01-26T19:51:05.636Z,6.90
2023-01-26T19:53:34.433Z,7.65
2023-01-26T19:56:06.471Z,6.55
2023-01-26T20:01:19.839Z,7.15
2023-01-26T20:04:09.446Z,7.25
2023-01-26T20:06:36.965Z,7.18
2023-01-26T20:09:06.016Z,6.97
2023-01-26T20:11:34.017Z,6.70
2023-01-26T20:14:05.999Z,6.53
2023-01-26T20:16:34.624Z,5.85
2023-01-26T20:19:01.553Z,5.80
2023-01-26T20:21:29.568Z,6.28
2023-01-26T20:23:56.742Z,6.90
2023-01-26T20:26:26.164Z,6.07
2023-01-26T20:28:56.197Z,6.05
2023-01-26T20:31:25.687Z,6.10
2023-01-26T20:33:53.521Z,6.05
2023-01-26T20:36:24.014Z,6.45
2023-01-26T20:38:51.575Z,5.72
2023-01-26T20:41:32.608Z,5.90
2023-01-26T20:44:02.673Z,6.25
2023-01-26T20:46:38.867Z,5.57
2023-01-26T20:49:08.538Z,5.72
2023-01-26T20:51:39.497Z,5.90
2023-01-26T20:54:08.531Z,5.93
2023-01-26T20:56:35.650Z,5.63
2023-01-26T20:59:02.975Z,6.30
2023-01-26T21:01:30.253Z,5.63
2023-01-26T21:03:57.192Z,5.78
2023-01-26T21:06:24.743Z,5.78
2023-01-26T21:08:57.544Z,5.53
2023-01-26T21:11:27.522Z,5.38
2023-01-26T21:14:00.607Z,5.45
2023-01-26T21:16:28.596Z,4.70
2023-01-26T21:18:55.790Z,5.68
2023-01-26T21:21:23.144Z,5.13
2023-01-26T21:23:50.762Z,5.60
2023-01-26T21:26:24.234Z,5.60
2023-01-26T21:28:52.536Z,5.07
2023-01-26T21:31:20.870Z,5.10
2023-01-26T21:33:48.941Z,5.20
2023-01-26T21:36:18.429Z,5.32
2023-01-26T21:38:48.017Z,5.53
2023-01-26T21:41:36.074Z,4.82
2023-01-26T21:44:15.054Z,4.25
2023-01-26T21:46:44.348Z,5.38
2023-01-26T21:49:12.728Z,5.13
2023-01-26T21:51:58.355Z,4.90
2023-01-26T21:54:26.007Z,4.80
2023-01-26T21:56:53.077Z,5.15
2023-01-26T21:59:19.842Z,5.18
2023-01-26T22:01:48.850Z,4.53
2023-01-26T22:04:22.326Z,5.18
2023-01-26T22:06:49.794Z,5.10
2023-01-26T22:09:17.561Z,5.30
2023-01-26T22:11:45.272Z,4.65
2023-01-26T22:14:17.134Z,5.18
2023-01-26T22:16:43.885Z,4.70
2023-01-26T22:19:11.187Z,4.55
2023-01-26T22:21:38.528Z,4.00
2023-01-26T22:24:05.962Z,3.92
2023-01-26T22:26:32.815Z,4.30
2023-01-26T22:29:00.481Z,3.72
2023-01-26T22:31:29.395Z,3.58
2023-01-26T22:33:58.497Z,3.90
2023-01-26T22:36:25.875Z,3.65
2023-01-26T22:38:53.508Z,2.80
2023-01-26T22:41:24.205Z,2.75
2023-01-26T22:43:54.408Z,2.38
2023-01-26T22:46:23.093Z,2.10
2023-01-26T22:48:50.384Z,1.88
2023-01-26T22:51:22.884Z,1.85
2023-01-26T22:53:51.611Z,1.40
2023-01-26T22:56:19.685Z,1.67
2023-01-26T22:58:58.356Z,1.83
2023-01-26T23:01:27.426Z,1.00
2023-01-26T23:03:55.566Z,1.20
2023-01-26T23:06:22.789Z,0.98
2023-01-26T23:08:49.574Z,0.93
2023-01-26T23:11:16.281Z,1.33
2023-01-26T23:13:44.429Z,1.30
2023-01-26T23:16:12.259Z,1.60
2023-01-26T23:18:39.552Z,1.50
2023-01-26T23:21:07.295Z,1.85
2023-01-26T23:23:34.349Z,2.28
2023-01-26T23:26:01.400Z,1.83
2023-01-26T23:28:31.085Z,1.80
2023-01-26T23:30:59.125Z,1.75
2023-01-26T23:33:27.938Z,1.67
2023-01-26T23:35:55.017Z,1.90
2023-01-26T23:38:24.236Z,2.03
2023-01-26T23:40:55.004Z,2.05
2023-01-26T23:43:22.134Z,2.03
2023-01-26T23:45:51.332Z,1.55
2023-01-26T23:48:18.876Z,1.73
2023-01-26T23:50:46.181Z,1.38
2023-01-26T23:53:13.127Z,1.13
2023-01-26T23:55:41.594Z,1.33
2023-01-26T23:58:09.101Z,1.20
